createdAt,value
2023-04-29T00:01:01.882Z,96.97
2023-04-29T00:03:30.365Z,97.23
2023-04-29T00:05:57.336Z,97.23
2023-04-29T00:08:24.657Z,97.31
2023-04-29T00:10:51.329Z,97.32
2023-04-29T00:13:17.937Z,96.93
2023-04-29T00:15:44.641Z,96.78
2023-04-29T00:18:11.237Z,97.02
2023-04-29T00:20:38.820Z,96.66
2023-04-29T00:23:06.046Z,96.71
2023-04-29T00:25:32.584Z,97.34
2023-04-29T00:28:02.042Z,97.15
2023-04-29T00:30:29.117Z,96.84
2023-04-29T00:32:55.783Z,97.35
2023-04-29T00:35:22.471Z,96.72
2023-04-29T00:37:49.059Z,97.24
2023-04-29T00:40:16.398Z,97.22
2023-04-29T00:42:43.190Z,97.08
2023-04-29T00:45:13.505Z,96.72
2023-04-29T00:47:40.026Z,97.01
2023-04-29T00:50:08.735Z,97.43
2023-04-29T00:52:38.200Z,96.78
2023-04-29T00:55:07.138Z,97.00
2023-04-29T00:57:34.492Z,97.80
2023-04-29T01:00:01.415Z,97.11
2023-04-29T01:02:28.906Z,96.54
2023-04-29T01:04:55.644Z,96.80
2023-04-29T01:07:59.064Z,97.11
2023-04-29T01:10:47.056Z,97.05
2023-04-29T01:13:30.929Z,97.11
2023-04-29T01:16:15.044Z,96.28
2023-04-29T01:18:50.240Z,97.33
2023-04-29T01:21:18.069Z,97.88
2023-04-29T01:23:45.751Z,97.37
2023-04-29T01:26:12.661Z,97.13
2023-04-29T01:28:45.242Z,96.91
2023-04-29T01:31:22.331Z,97.22
2023-04-29T01:34:06.027Z,97.08
2023-04-29T01:36:44.744Z,97.33
2023-04-29T01:39:11.841Z,97.08
2023-04-29T01:41:43.136Z,97.27
2023-04-29T01:44:16.607Z,96.94
2023-04-29T01:46:47.619Z,97.04
2023-04-29T01:49:19.769Z,97.31
2023-04-29T01:51:46.478Z,97.16
2023-04-29T01:54:13.095Z,96.79
2023-04-29T01:56:40.065Z,97.00
2023-04-29T01:59:07.545Z,97.51
2023-04-29T02:01:34.095Z,97.74
2023-04-29T02:04:00.699Z,97.18
2023-04-29T02:06:28.056Z,97.33
2023-04-29T02:08:54.694Z,97.52
2023-04-29T02:11:21.283Z,97.43
2023-04-29T02:13:48.191Z,97.54
2023-04-29T02:16:16.365Z,97.06
2023-04-29T02:18:43.015Z,97.26
2023-04-29T02:21:09.619Z,97.22
2023-04-29T02:23:36.561Z,97.31
2023-04-29T02:26:06.207Z,97.45
2023-04-29T02:28:35.989Z,97.49
2023-04-29T02:31:02.518Z,97.07
2023-04-29T02:33:29.124Z,97.13
2023-04-29T02:35:55.770Z,97.06
2023-04-29T02:38:22.271Z,96.65
2023-04-29T02:40:48.949Z,96.94
2023-04-29T02:43:15.449Z,97.25
2023-04-29T02:45:42.054Z,97.05
2023-04-29T02:48:08.748Z,96.78
2023-04-29T02:50:35.597Z,97.22
2023-04-29T02:53:02.302Z,96.50
2023-04-29T02:55:28.835Z,97.05
2023-04-29T02:57:55.390Z,96.79
2023-04-29T03:00:22.081Z,97.16
2023-04-29T03:02:48.852Z,97.12
2023-04-29T03:05:15.510Z,96.55
2023-04-29T03:07:42.160Z,96.70
2023-04-29T03:10:09.313Z,97.40
2023-04-29T03:12:36.096Z,97.10
2023-04-29T03:15:02.722Z,96.94
2023-04-29T03:17:29.245Z,96.67
2023-04-29T03:19:55.778Z,97.01
2023-04-29T03:22:22.434Z,96.50
2023-04-29T03:24:49.111Z,97.12
2023-04-29T03:27:16.010Z,96.98
2023-04-29T03:29:42.518Z,96.61
2023-04-29T03:32:09.084Z,96.55
2023-04-29T03:34:35.977Z,96.57
2023-04-29T03:37:02.623Z,96.55
2023-04-29T03:39:32.342Z,96.53
2023-04-29T03:41:59.688Z,95.62
2023-04-29T03:44:26.682Z,95.72
2023-04-29T03:46:53.268Z,96.20
2023-04-29T03:49:19.764Z,96.32
2023-04-29T03:51:46.688Z,95.76
2023-04-29T03:54:13.640Z,95.43
2023-04-29T03:56:41.090Z,95.75
2023-04-29T03:59:07.705Z,95.33
2023-04-29T04:01:34.470Z,94.47
2023-04-29T04:04:01.457Z,95.48
2023-04-29T04:06:28.109Z,95.21
2023-04-29T04:08:54.609Z,94.00
2023-04-29T04:11:21.161Z,94.29
2023-04-29T04:13:47.691Z,94.70
2023-04-29T04:16:16.034Z,94.43
2023-04-29T04:18:42.667Z,94.45
2023-04-29T04:21:11.203Z,94.23
2023-04-29T04:23:41.076Z,93.70
2023-04-29T04:26:08.194Z,94.99
2023-04-29T04:28:34.755Z,93.67
2023-04-29T04:31:01.275Z,94.21
2023-04-29T04:33:28.321Z,93.73
2023-04-29T04:35:55.090Z,93.53
2023-04-29T04:38:23.132Z,93.42
2023-04-29T04:40:49.633Z,93.75
2023-04-29T04:43:16.378Z,95.09
2023-04-29T04:45:42.887Z,94.40
2023-04-29T04:48:09.749Z,94.44
2023-04-29T04:50:36.468Z,94.80
2023-04-29T04:53:03.600Z,94.52
2023-04-29T04:55:31.687Z,94.06
2023-04-29T04:57:59.532Z,94.08
2023-04-29T05:00:26.065Z,94.57
2023-04-29T05:02:52.741Z,95.27
2023-04-29T05:05:19.446Z,95.46
2023-04-29T05:07:45.950Z,94.95
2023-04-29T05:10:12.527Z,94.66
2023-04-29T05:12:39.049Z,95.06
2023-04-29T05:15:06.108Z,95.27
2023-04-29T05:17:34.839Z,94.67
2023-04-29T05:20:01.632Z,95.08
2023-04-29T05:22:28.236Z,95.28
2023-04-29T05:25:00.181Z,94.70
2023-04-29T05:27:26.729Z,94.83
2023-04-29T05:29:53.567Z,94.53
2023-04-29T05:32:20.384Z,94.94
2023-04-29T05:34:46.965Z,95.29
2023-04-29T05:37:13.463Z,94.93
2023-04-29T05:39:39.983Z,95.01
2023-04-29T05:42:06.698Z,94.42
2023-04-29T05:44:33.217Z,95.03
2023-04-29T05:47:00.430Z,95.44
2023-04-29T05:49:26.970Z,94.77
2023-04-29T05:51:53.726Z,95.03
2023-04-29T05:54:20.259Z,94.70
2023-04-29T05:56:46.884Z,94.77
2023-04-29T05:59:13.448Z,93.98
2023-04-29T06:01:40.024Z,94.88
2023-04-29T06:04:06.771Z,94.21
2023-04-29T06:06:34.485Z,93.77
2023-04-29T06:09:01.513Z,94.07
2023-04-29T06:11:28.037Z,93.87
2023-04-29T06:13:54.587Z,93.89
2023-04-29T06:16:21.389Z,93.71
2023-04-29T06:18:48.031Z,93.30
2023-04-29T06:21:15.776Z,94.20
2023-04-29T06:23:42.281Z,93.23
2023-04-29T06:26:08.789Z,93.21
2023-04-29T06:28:35.350Z,93.28
2023-04-29T06:31:02.048Z,92.97
2023-04-29T06:33:30.356Z,92.48
2023-04-29T06:35:57.302Z,92.03
2023-04-29T06:38:23.833Z,91.98
2023-04-29T06:40:50.405Z,92.14
2023-04-29T06:43:16.972Z,91.85
2023-04-29T06:45:46.828Z,92.03
2023-04-29T06:48:13.573Z,90.63
2023-04-29T06:50:49.555Z,90.44
2023-04-29T06:53:16.061Z,91.25
2023-04-29T06:55:42.612Z,90.92
2023-04-29T06:58:09.183Z,91.27
2023-04-29T07:00:35.898Z,90.13
2023-04-29T07:03:02.784Z,90.70
2023-04-29T07:05:29.357Z,90.15
2023-04-29T07:07:55.961Z,89.38
2023-04-29T07:10:22.540Z,87.39
2023-04-29T07:12:49.064Z,87.51
2023-04-29T07:15:15.908Z,86.43
2023-04-29T07:17:42.514Z,86.82
2023-04-29T07:20:09.605Z,86.62
2023-04-29T07:22:36.171Z,87.54
2023-04-29T07:25:02.679Z,87.67
2023-04-29T07:27:29.596Z,86.10
2023-04-29T07:29:56.838Z,85.30
2023-04-29T07:32:23.501Z,84.98
2023-04-29T07:34:50.095Z,84.66
2023-04-29T07:37:16.661Z,85.19
2023-04-29T07:39:43.228Z,85.55
2023-04-29T07:42:09.900Z,84.11
2023-04-29T07:44:36.591Z,84.50
2023-04-29T07:47:03.181Z,84.83
2023-04-29T07:49:29.748Z,85.00
2023-04-29T07:51:56.476Z,84.99
2023-04-29T07:54:23.670Z,82.53
2023-04-29T07:56:50.477Z,81.59
2023-04-29T07:59:17.045Z,77.89
2023-04-29T08:01:43.977Z,81.91
2023-04-29T08:04:10.868Z,75.62
2023-04-29T08:06:37.700Z,77.61
2023-04-29T08:09:04.339Z,78.78
2023-04-29T08:11:30.885Z,75.81
2023-04-29T08:13:59.286Z,75.37
2023-04-29T08:16:26.999Z,77.34
2023-04-29T08:18:54.371Z,77.77
2023-04-29T08:21:21.002Z,74.67
2023-04-29T08:23:47.519Z,73.00
2023-04-29T08:26:14.154Z,71.11
2023-04-29T08:28:40.980Z,71.32
2023-04-29T08:31:07.745Z,72.71
2023-04-29T08:33:35.229Z,71.14
2023-04-29T08:36:03.546Z,70.55
2023-04-29T08:38:31.025Z,72.68
2023-04-29T08:40:58.547Z,72.45
2023-04-29T08:43:27.034Z,73.14
2023-04-29T08:45:54.205Z,72.85
2023-04-29T08:48:21.922Z,71.60
2023-04-29T08:50:48.780Z,70.50
2023-04-29T08:53:15.745Z,68.60
2023-04-29T08:55:47.429Z,69.24
2023-04-29T08:58:16.093Z,69.25
2023-04-29T09:00:45.134Z,69.48
2023-04-29T09:03:26.791Z,69.60
2023-04-29T09:05:55.224Z,69.76
2023-04-29T09:08:24.580Z,70.69
2023-04-29T09:10:54.486Z,72.98
2023-04-29T09:13:31.674Z,69.10
2023-04-29T09:15:58.811Z,70.72
2023-04-29T09:18:43.942Z,70.45
2023-04-29T09:21:14.566Z,70.25
2023-04-29T09:23:41.150Z,68.75
2023-04-29T09:26:07.764Z,69.06
2023-04-29T09:28:34.807Z,68.97
2023-04-29T09:31:06.539Z,68.01
2023-04-29T09:33:51.441Z,68.08
2023-04-29T09:36:47.489Z,68.32
2023-04-29T09:39:22.442Z,66.36
2023-04-29T09:41:54.773Z,69.04
2023-04-29T09:44:24.957Z,69.42
2023-04-29T09:47:06.611Z,67.36
2023-04-29T09:49:37.195Z,66.63
2023-04-29T09:52:05.849Z,67.32
2023-04-29T09:54:34.405Z,64.17
2023-04-29T09:57:02.345Z,62.37
2023-04-29T09:59:28.961Z,66.46
2023-04-29T10:01:57.623Z,65.62
2023-04-29T10:04:26.502Z,65.43
2023-04-29T10:06:55.711Z,63.95
2023-04-29T10:09:24.040Z,61.95
2023-04-29T10:11:53.569Z,62.16
2023-04-29T10:14:26.140Z,63.13
2023-04-29T10:17:18.328Z,60.53
2023-04-29T10:19:54.311Z,60.56
2023-04-29T10:22:33.603Z,61.95
2023-04-29T10:25:02.208Z,60.08
2023-04-29T10:27:34.022Z,63.21
2023-04-29T10:30:02.249Z,61.91
2023-04-29T10:32:37.026Z,61.99
2023-04-29T10:35:12.590Z,59.60
2023-04-29T10:37:40.089Z,59.85
2023-04-29T10:40:21.029Z,57.64
2023-04-29T10:42:52.870Z,58.54
2023-04-29T10:45:19.373Z,59.54
2023-04-29T10:48:06.061Z,61.23
2023-04-29T10:50:33.765Z,62.48
2023-04-29T10:53:04.969Z,57.85
2023-04-29T10:55:35.732Z,59.67
2023-04-29T10:58:04.191Z,61.86
2023-04-29T11:00:34.624Z,61.52
2023-04-29T11:03:05.203Z,61.86
2023-04-29T11:05:36.896Z,61.58
2023-04-29T11:08:16.447Z,59.56
2023-04-29T11:10:44.046Z,61.34
2023-04-29T11:13:29.257Z,60.25
2023-04-29T11:16:06.443Z,62.29
2023-04-29T11:18:34.858Z,63.29
2023-04-29T11:21:07.117Z,55.94
2023-04-29T11:23:38.637Z,58.15
2023-04-29T11:26:05.488Z,58.84
2023-04-29T11:28:33.407Z,58.66
2023-04-29T11:31:00.874Z,57.88
2023-04-29T11:33:28.293Z,58.34
2023-04-29T11:35:55.595Z,59.83
2023-04-29T11:38:30.326Z,62.02
2023-04-29T11:40:59.874Z,60.43
2023-04-29T11:43:26.490Z,63.71
2023-04-29T11:45:53.735Z,56.96
2023-04-29T11:48:30.274Z,61.84
2023-04-29T11:51:00.114Z,59.67
2023-04-29T11:53:29.890Z,59.78
2023-04-29T11:55:57.002Z,60.70
2023-04-29T11:58:24.602Z,57.66
2023-04-29T12:00:51.877Z,56.80
2023-04-29T12:03:21.135Z,59.76
2023-04-29T12:05:56.224Z,56.51
2023-04-29T12:08:24.254Z,58.45
2023-04-29T12:10:52.556Z,59.21
2023-04-29T12:13:22.322Z,57.10
2023-04-29T12:15:51.312Z,58.13
2023-04-29T12:18:19.830Z,58.28
2023-04-29T12:20:48.162Z,55.03
2023-04-29T12:23:20.293Z,56.13
2023-04-29T12:25:58.945Z,59.02
2023-04-29T12:28:27.008Z,61.18
2023-04-29T12:30:54.685Z,59.43
2023-04-29T12:33:27.104Z,58.46
2023-04-29T12:35:56.879Z,58.55
2023-04-29T12:38:42.959Z,61.37
2023-04-29T12:41:09.520Z,60.08
2023-04-29T12:43:37.076Z,60.44
2023-04-29T12:46:08.257Z,59.42
2023-04-29T12:48:43.697Z,58.95
2023-04-29T12:51:11.624Z,60.30
2023-04-29T12:53:38.923Z,62.03
2023-04-29T12:56:06.660Z,61.34
2023-04-29T12:58:36.765Z,59.04
2023-04-29T13:01:03.360Z,58.31
2023-04-29T13:03:30.158Z,56.58
2023-04-29T13:05:57.227Z,59.41
2023-04-29T13:08:23.888Z,60.86
2023-04-29T13:10:50.856Z,58.83
2023-04-29T13:13:17.571Z,57.76
2023-04-29T13:15:44.221Z,60.75
2023-04-29T13:18:10.785Z,60.82
2023-04-29T13:20:41.671Z,59.25
2023-04-29T13:23:09.708Z,59.98
2023-04-29T13:25:36.284Z,59.51
2023-04-29T13:28:02.941Z,57.74
2023-04-29T13:30:29.554Z,60.26
2023-04-29T13:33:01.170Z,59.08
2023-04-29T13:35:30.924Z,60.27
2023-04-29T13:37:57.556Z,60.01
2023-04-29T13:40:27.801Z,58.97
2023-04-29T13:43:02.132Z,59.16
2023-04-29T13:45:38.934Z,60.88
2023-04-29T13:48:16.851Z,59.09
2023-04-29T13:56:41.141Z,56.60
2023-04-29T13:59:19.841Z,61.18
2023-04-29T14:02:13.955Z,60.61
2023-04-29T14:04:11.674Z,60.09
2023-04-29T14:06:38.562Z,58.82
2023-04-29T14:09:05.120Z,59.21
2023-04-29T14:11:38.600Z,61.18
2023-04-29T14:14:05.165Z,59.17
2023-04-29T14:16:32.150Z,58.03
2023-04-29T14:18:59.680Z,59.75
2023-04-29T14:21:27.948Z,59.86
2023-04-29T14:23:54.480Z,59.54
2023-04-29T14:26:27.908Z,57.89
2023-04-29T14:28:59.346Z,58.60
2023-04-29T14:31:31.314Z,59.87
2023-04-29T14:33:58.754Z,60.08
2023-04-29T14:36:26.539Z,59.42
2023-04-29T14:38:53.206Z,59.72
2023-04-29T14:41:21.810Z,59.34
2023-04-29T14:43:48.518Z,58.00
2023-04-29T14:46:15.282Z,59.90
2023-04-29T14:48:41.970Z,57.90
2023-04-29T14:51:08.626Z,59.80
2023-04-29T14:53:35.253Z,58.97
2023-04-29T14:56:01.869Z,58.68
2023-04-29T14:58:28.390Z,57.96
2023-04-29T15:00:56.129Z,59.65
2023-04-29T15:03:23.617Z,58.78
2023-04-29T15:05:51.299Z,58.88
2023-04-29T15:08:18.749Z,59.15
2023-04-29T15:10:47.499Z,58.55
2023-04-29T15:13:14.318Z,59.44
2023-04-29T15:15:41.175Z,58.67
2023-04-29T15:18:08.783Z,59.16
2023-04-29T15:20:36.904Z,58.76
2023-04-29T15:23:04.722Z,59.01
2023-04-29T15:25:33.544Z,59.64
2023-04-29T15:28:01.481Z,59.00
2023-04-29T15:30:27.982Z,58.58
2023-04-29T15:32:55.008Z,60.35
2023-04-29T15:35:21.900Z,60.14
2023-04-29T15:37:48.571Z,59.51
2023-04-29T15:40:16.449Z,58.51
2023-04-29T15:42:43.224Z,60.50
2023-04-29T15:45:10.451Z,58.66
2023-04-29T15:47:37.063Z,59.17
2023-04-29T15:50:03.980Z,59.34
2023-04-29T15:52:30.525Z,60.38
2023-04-29T15:54:58.158Z,59.06
2023-04-29T15:57:25.773Z,60.88
2023-04-29T15:59:52.598Z,60.38
2023-04-29T16:02:20.401Z,59.26
2023-04-29T16:04:47.035Z,61.20
2023-04-29T16:07:13.877Z,58.58
2023-04-29T16:09:40.440Z,58.85
2023-04-29T16:12:08.052Z,59.63
2023-04-29T16:14:34.624Z,60.64
2023-04-29T16:17:01.398Z,59.57
2023-04-29T16:19:28.283Z,59.45
2023-04-29T16:21:55.508Z,58.84
2023-04-29T16:24:22.211Z,59.26
2023-04-29T16:26:49.724Z,59.78
2023-04-29T16:29:16.342Z,59.23
2023-04-29T16:31:43.701Z,58.61
2023-04-29T16:34:10.596Z,56.25
2023-04-29T16:36:37.510Z,58.32
2023-04-29T16:39:04.680Z,57.26
2023-04-29T16:41:32.000Z,56.09
2023-04-29T16:43:58.764Z,55.38
2023-04-29T16:46:25.821Z,55.66
2023-04-29T16:48:56.558Z,56.07
2023-04-29T16:51:27.384Z,53.23
2023-04-29T16:53:54.248Z,53.28
2023-04-29T16:56:22.476Z,53.16
2023-04-29T16:58:48.981Z,52.59
2023-04-29T17:01:16.208Z,53.40
2023-04-29T17:03:42.930Z,53.57
2023-04-29T17:06:09.819Z,52.64
2023-04-29T17:08:36.708Z,51.10
2023-04-29T17:11:05.173Z,53.62
2023-04-29T17:13:31.695Z,54.53
2023-04-29T17:15:58.324Z,51.76
2023-04-29T17:18:24.896Z,53.47
2023-04-29T17:20:51.501Z,53.53
2023-04-29T17:23:18.337Z,51.84
2023-04-29T17:25:45.120Z,53.84
2023-04-29T17:28:11.844Z,52.22
2023-04-29T17:30:38.377Z,53.32
2023-04-29T17:33:07.962Z,53.17
2023-04-29T17:35:34.995Z,53.01
2023-04-29T17:38:01.841Z,53.19
2023-04-29T17:40:28.531Z,54.39
2023-04-29T17:42:55.082Z,52.81
2023-04-29T17:45:21.655Z,51.82
2023-04-29T17:47:48.331Z,53.32
2023-04-29T17:50:15.136Z,53.76
2023-04-29T17:52:42.375Z,53.22
2023-04-29T17:55:09.491Z,53.72
2023-04-29T17:57:37.882Z,52.50
2023-04-29T18:00:06.904Z,53.46
2023-04-29T18:02:34.332Z,53.22
2023-04-29T18:05:02.911Z,53.41
2023-04-29T18:07:29.407Z,53.22
2023-04-29T18:09:56.125Z,53.72
2023-04-29T18:12:24.067Z,52.71
2023-04-29T18:14:51.748Z,54.41
2023-04-29T18:17:18.542Z,53.66
2023-04-29T18:19:48.393Z,53.44
2023-04-29T18:22:15.591Z,54.31
2023-04-29T18:24:42.146Z,53.41
2023-04-29T18:27:08.669Z,54.52
2023-04-29T18:29:35.349Z,53.90
2023-04-29T18:32:01.992Z,55.11
2023-04-29T18:34:28.738Z,53.17
2023-04-29T18:36:55.335Z,54.54
2023-04-29T18:39:21.868Z,54.02
2023-04-29T18:41:49.621Z,54.48
2023-04-29T18:44:16.237Z,55.34
2023-04-29T18:46:42.846Z,55.02
2023-04-29T18:49:15.407Z,54.92
2023-04-29T18:51:48.529Z,55.45
2023-04-29T18:54:17.262Z,55.22
2023-04-29T18:56:49.559Z,54.37
2023-04-29T18:59:19.201Z,55.74
2023-04-29T19:01:47.121Z,55.76
2023-04-29T19:04:14.448Z,56.90
2023-04-29T19:06:41.997Z,57.07
2023-04-29T19:09:08.993Z,57.54
2023-04-29T19:11:44.808Z,57.47
2023-04-29T19:14:11.603Z,57.49
2023-04-29T19:16:42.225Z,57.82
2023-04-29T19:19:08.721Z,58.65
2023-04-29T19:21:35.950Z,58.47
2023-04-29T19:24:02.848Z,58.69
2023-04-29T19:26:31.093Z,59.35
2023-04-29T19:28:59.689Z,58.96
2023-04-29T19:31:26.722Z,59.08
2023-04-29T19:33:53.562Z,60.82
2023-04-29T19:36:21.162Z,61.26
2023-04-29T19:38:47.891Z,61.49
2023-04-29T19:41:14.640Z,61.20
2023-04-29T19:43:41.190Z,60.61
2023-04-29T19:46:07.914Z,62.05
2023-04-29T19:48:34.543Z,61.95
2023-04-29T19:51:01.409Z,63.27
2023-04-29T19:53:28.159Z,62.99
2023-04-29T19:55:54.667Z,64.08
2023-04-29T19:58:21.313Z,64.05
2023-04-29T20:00:48.134Z,64.83
2023-04-29T20:03:14.936Z,65.12
2023-04-29T20:05:41.613Z,65.36
2023-04-29T20:08:08.179Z,65.96
2023-04-29T20:10:34.784Z,66.93
2023-04-29T20:13:01.386Z,67.03
2023-04-29T20:15:28.411Z,68.34
2023-04-29T20:17:55.680Z,67.63
2023-04-29T20:20:22.364Z,68.19
2023-04-29T20:22:48.976Z,68.05
2023-04-29T20:25:15.540Z,69.08
2023-04-29T20:27:42.162Z,69.56
2023-04-29T20:30:10.402Z,70.23
2023-04-29T20:32:37.857Z,70.73
2023-04-29T20:35:05.618Z,70.60
2023-04-29T20:37:32.208Z,70.55
2023-04-29T20:39:58.834Z,71.39
2023-04-29T20:42:27.496Z,71.58
2023-04-29T20:44:53.985Z,71.99
2023-04-29T20:47:21.169Z,71.92
2023-04-29T20:49:47.901Z,71.32
2023-04-29T20:52:14.390Z,72.05
2023-04-29T20:54:41.510Z,72.80
2023-04-29T20:57:08.065Z,72.46
2023-04-29T20:59:34.745Z,72.87
2023-04-29T21:02:01.545Z,72.38
2023-04-29T21:04:28.338Z,73.50
2023-04-29T21:06:55.068Z,73.42
2023-04-29T21:09:21.986Z,73.58
2023-04-29T21:11:48.713Z,74.14
2023-04-29T21:14:18.805Z,74.60
2023-04-29T21:16:45.528Z,74.27
2023-04-29T21:19:13.438Z,75.09
2023-04-29T21:21:39.934Z,74.65
2023-04-29T21:24:06.766Z,75.11
2023-04-29T21:26:33.376Z,75.72
2023-04-29T21:29:00.259Z,75.49
2023-04-29T21:31:27.079Z,75.66
2023-04-29T21:33:53.581Z,75.65
2023-04-29T21:36:20.198Z,75.69
2023-04-29T21:38:46.866Z,76.07
2023-04-29T21:41:18.404Z,76.06
2023-04-29T21:43:47.308Z,76.95
2023-04-29T21:46:14.358Z,76.43
2023-04-29T21:48:41.078Z,76.93
2023-04-29T21:51:07.721Z,77.16
2023-04-29T21:53:34.433Z,76.99
2023-04-29T21:56:01.007Z,76.76
2023-04-29T21:58:27.627Z,77.09
2023-04-29T22:01:15.568Z,77.23
2023-04-29T22:03:42.190Z,77.73
2023-04-29T22:06:08.875Z,78.10
2023-04-29T22:08:35.715Z,77.92
2023-04-29T22:11:02.246Z,78.30
2023-04-29T22:13:29.184Z,78.31
2023-04-29T22:15:55.744Z,77.87
2023-04-29T22:18:22.300Z,78.83
2023-04-29T22:20:48.793Z,78.46
2023-04-29T22:23:15.353Z,79.04
2023-04-29T22:25:41.988Z,79.15
2023-04-29T22:28:08.489Z,79.52
2023-04-29T22:30:35.099Z,79.90
2023-04-29T22:33:01.742Z,79.55
2023-04-29T22:35:28.445Z,79.92
2023-04-29T22:37:54.930Z,80.39
2023-04-29T22:40:21.472Z,79.73
2023-04-29T22:42:48.026Z,80.10
2023-04-29T22:45:14.605Z,80.00
2023-04-29T22:47:41.328Z,80.55
2023-04-29T22:50:08.124Z,80.43
2023-04-29T22:52:34.750Z,80.88
2023-04-29T22:55:01.396Z,80.39
2023-04-29T22:57:28.333Z,80.31
2023-04-29T22:59:56.548Z,80.54
2023-04-29T23:02:28.829Z,80.34
2023-04-29T23:04:56.472Z,80.83
2023-04-29T23:07:23.467Z,80.41
2023-04-29T23:09:51.129Z,80.91
2023-04-29T23:12:19.004Z,80.96
2023-04-29T23:14:46.017Z,81.61
2023-04-29T23:17:12.627Z,81.25
2023-04-29T23:19:39.185Z,80.23
2023-04-29T23:22:07.332Z,81.42
2023-04-29T23:24:35.512Z,81.32
2023-04-29T23:27:05.465Z,81.16
2023-04-29T23:29:35.072Z,81.83
2023-04-29T23:32:01.701Z,81.37
2023-04-29T23:34:28.280Z,81.83
2023-04-29T23:36:54.827Z,82.46
2023-04-29T23:39:21.445Z,82.12
2023-04-29T23:41:47.997Z,82.37
2023-04-29T23:44:14.600Z,82.23
2023-04-29T23:46:41.312Z,81.81
2023-04-29T23:49:07.965Z,81.71
2023-04-29T23:51:34.600Z,81.92
2023-04-29T23:54:01.234Z,81.98
2023-04-29T23:56:29.060Z,82.48
2023-04-29T23:58:55.735Z,82.12
